Time;durP1;ratioP1;P1;durP2;ratioP2;P2;SDS_P1;SDS_P2;PMS_P1;PMS_P2;Temp;Humidity;BMP_temperature;BMP_pressure;BME280_temperature;BME280_humidity;BME280_pressure;Samples;Min_cycle;Max_cycle;Signal;HPM_P1;HPM_P2
2021/12/30 00:00:24;;;;;;;9.23;7.85;;;10.60;99.90;;;;;;5034830;28;20208;-68
2021/12/30 00:02:50;;;;;;;9.57;7.72;;;10.50;99.90;;;;;;5035196;28;20372;-71
2021/12/30 00:05:16;;;;;;;10.35;7.50;;;10.60;99.90;;;;;;5033510;28;20390;-72
2021/12/30 00:07:43;;;;;;;8.48;7.15;;;10.60;99.90;;;;;;5034566;28;20025;-67
2021/12/30 00:10:11;;;;;;;10.95;7.47;;;10.60;99.90;;;;;;5034735;28;20017;-68
2021/12/30 00:12:38;;;;;;;10.15;7.43;;;10.70;99.90;;;;;;5033922;28;20033;-68
2021/12/30 00:15:07;;;;;;;8.55;6.80;;;10.70;99.90;;;;;;5035004;28;20048;-68
2021/12/30 00:17:33;;;;;;;7.25;6.20;;;10.70;99.90;;;;;;5035291;28;20034;-68
2021/12/30 00:20:00;;;;;;;6.82;5.63;;;10.80;99.90;;;;;;5035823;28;20112;-69
2021/12/30 00:22:28;;;;;;;6.55;5.50;;;10.80;99.90;;;;;;5034166;28;20064;-69
2021/12/30 00:24:53;;;;;;;6.53;5.75;;;10.90;99.90;;;;;;5035032;28;20083;-68
2021/12/30 00:27:19;;;;;;;5.43;4.78;;;10.90;99.90;;;;;;5013152;28;20476;-70
2021/12/30 00:29:45;;;;;;;8.35;5.20;;;10.90;99.90;;;;;;5014049;28;20070;-69
2021/12/30 00:32:10;;;;;;;11.82;5.57;;;10.90;99.90;;;;;;5012406;28;20121;-68
2021/12/30 00:34:36;;;;;;;7.28;5.32;;;10.90;99.90;;;;;;5013676;28;20112;-67
2021/12/30 00:37:02;;;;;;;6.55;4.68;;;10.90;99.90;;;;;;5012626;28;20061;-68
2021/12/30 00:39:27;;;;;;;7.57;5.63;;;10.90;99.90;;;;;;5012696;28;20025;-69
2021/12/30 00:41:53;;;;;;;6.07;5.10;;;10.90;99.90;;;;;;5013132;28;20107;-67
2021/12/30 00:44:19;;;;;;;10.75;5.07;;;10.90;99.90;;;;;;5014315;28;20034;-67
2021/12/30 00:46:44;;;;;;;7.35;4.82;;;11.00;99.90;;;;;;5015023;28;20514;-67
2021/12/30 00:49:10;;;;;;;5.93;4.55;;;11.00;99.90;;;;;;5014195;28;20368;-68
2021/12/30 00:51:36;;;;;;;6.63;5.00;;;11.00;99.90;;;;;;5014622;28;20384;-67
2021/12/30 00:54:02;;;;;;;8.65;4.28;;;11.00;99.90;;;;;;5014259;28;20030;-69
2021/12/30 00:56:28;;;;;;;5.95;4.68;;;11.00;99.90;;;;;;5013644;28;20080;-70
2021/12/30 00:58:57;;;;;;;8.05;5.40;;;11.10;99.90;;;;;;5014494;28;20026;-69
2021/12/30 01:01:24;;;;;;;4.97;4.35;;;11.10;99.90;;;;;;5012264;28;20422;-68
2021/12/30 01:03:51;;;;;;;6.22;4.90;;;11.10;99.90;;;;;;5012965;28;20026;-67
2021/12/30 01:06:17;;;;;;;5.20;4.45;;;11.00;99.90;;;;;;5013698;28;20100;-69
2021/12/30 01:08:43;;;;;;;5.88;4.40;;;11.00;99.90;;;;;;5012964;28;20025;-68
2021/12/30 01:11:10;;;;;;;6.15;5.20;;;11.00;99.90;;;;;;5012355;28;20030;-66
2021/12/30 01:13:40;;;;;;;6.60;4.57;;;11.00;99.90;;;;;;5014497;28;20095;-68
2021/12/30 01:16:15;;;;;;;5.63;3.90;;;11.00;99.90;;;;;;5014415;28;20126;-69
2021/12/30 01:19:45;;;;;;;10.75;4.38;;;11.00;99.90;;;;;;5029288;28;20053;-67
2021/12/30 01:21:39;;;;;;;6.47;4.13;;;11.00;99.90;;;;;;5000665;28;20468;-67
2021/12/30 01:24:05;;;;;;;5.60;4.32;;;11.00;99.90;;;;;;5013927;28;20037;-67
2021/12/30 01:26:30;;;;;;;4.85;3.72;;;11.00;99.90;;;;;;5013097;28;20499;-67
2021/12/30 01:28:56;;;;;;;6.65;3.33;;;11.00;99.90;;;;;;5012631;28;20080;-67
2021/12/30 01:31:24;;;;;;;6.90;3.75;;;11.00;99.90;;;;;;5013384;28;20061;-68
2021/12/30 01:33:51;;;;;;;5.70;3.47;;;11.10;99.90;;;;;;5012628;28;20038;-66
2021/12/30 01:36:18;;;;;;;6.43;3.95;;;11.10;99.90;;;;;;5011414;28;20030;-68
2021/12/30 01:38:45;;;;;;;5.75;2.88;;;11.10;99.90;;;;;;5013683;28;20119;-70
2021/12/30 01:41:11;;;;;;;5.32;2.58;;;11.20;99.90;;;;;;5012781;28;20026;-71
2021/12/30 01:43:37;;;;;;;3.78;1.98;;;11.20;99.90;;;;;;5013691;28;20041;-68
2021/12/30 01:46:05;;;;;;;6.28;2.20;;;11.30;99.90;;;;;;5014167;28;20034;-68
2021/12/30 01:48:31;;;;;;;8.43;2.20;;;11.30;99.90;;;;;;5014185;28;20025;-69
2021/12/30 01:50:57;;;;;;;3.65;2.25;;;11.20;99.90;;;;;;5013752;28;20030;-67
2021/12/30 01:53:23;;;;;;;4.63;1.65;;;11.20;99.90;;;;;;5013916;28;20060;-68
2021/12/30 01:55:49;;;;;;;7.38;1.95;;;11.20;99.90;;;;;;5012435;28;20026;-68
2021/12/30 01:58:16;;;;;;;5.88;2.45;;;11.20;99.90;;;;;;5012809;28;20018;-68
2021/12/30 02:00:44;;;;;;;2.85;1.38;;;11.20;99.90;;;;;;5013279;28;20463;-68
2021/12/30 02:03:11;;;;;;;3.50;1.70;;;11.30;99.90;;;;;;5012640;28;20022;-69
2021/12/30 02:05:37;;;;;;;9.80;1.58;;;11.40;99.90;;;;;;5013354;28;20104;-69
2021/12/30 02:08:05;;;;;;;5.13;1.15;;;11.40;99.90;;;;;;5013330;28;20032;-70
2021/12/30 02:10:31;;;;;;;3.53;1.05;;;11.40;99.90;;;;;;5012625;28;20272;-67
2021/12/30 02:12:56;;;;;;;5.25;1.02;;;11.40;99.90;;;;;;5012903;28;20036;-68
2021/12/30 02:15:22;;;;;;;4.55;1.23;;;11.50;99.90;;;;;;5011297;28;20095;-68
2021/12/30 02:17:50;;;;;;;4.10;0.90;;;11.40;99.90;;;;;;5013006;28;20049;-68
2021/12/30 02:20:43;;;;;;;3.90;1.25;;;11.50;99.90;;;;;;5012516;28;20046;-68
2021/12/30 02:23:09;;;;;;;6.30;1.20;;;11.50;99.90;;;;;;5012747;28;20034;-67
2021/12/30 02:25:35;;;;;;;6.43;1.40;;;11.60;99.90;;;;;;5012049;28;20033;-68
2021/12/30 02:28:09;;;;;;;4.65;0.85;;;11.60;99.90;;;;;;5013010;28;20032;-68
2021/12/30 02:30:35;;;;;;;7.10;2.08;;;11.60;99.90;;;;;;5012274;28;20056;-69
2021/12/30 02:33:01;;;;;;;5.65;0.90;;;11.50;99.90;;;;;;5012565;28;20038;-69
2021/12/30 02:35:27;;;;;;;5.30;1.20;;;11.60;99.90;;;;;;5012083;28;20033;-67
2021/12/30 02:37:52;;;;;;;4.15;1.00;;;11.70;99.90;;;;;;5012944;28;20062;-68
2021/12/30 02:40:26;;;;;;;4.80;1.00;;;11.60;99.90;;;;;;5010849;28;20070;-68
2021/12/30 02:42:52;;;;;;;3.47;1.10;;;11.60;99.90;;;;;;5011605;28;20037;-68
2021/12/30 02:45:21;;;;;;;5.65;1.15;;;11.60;99.90;;;;;;5011081;28;20029;-68
2021/12/30 02:47:47;;;;;;;3.50;1.30;;;11.50;99.90;;;;;;5010863;28;20021;-68
2021/12/30 02:50:12;;;;;;;7.88;1.58;;;11.50;99.90;;;;;;5011329;28;20183;-69
2021/12/30 02:52:38;;;;;;;4.30;0.95;;;11.50;99.90;;;;;;5012556;28;20100;-68
2021/12/30 02:55:04;;;;;;;8.20;1.20;;;11.50;99.90;;;;;;5014741;28;20117;-69
2021/12/30 02:57:30;;;;;;;5.65;1.15;;;11.80;99.90;;;;;;5014924;28;20376;-68
2021/12/30 02:59:55;;;;;;;6.60;1.30;;;11.80;99.90;;;;;;5015431;28;20026;-69
2021/12/30 03:02:21;;;;;;;4.75;1.02;;;11.80;99.90;;;;;;5016580;28;20030;-67
2021/12/30 03:04:47;;;;;;;9.07;2.22;;;11.70;99.90;;;;;;5017185;28;20026;-67
2021/12/30 03:07:17;;;;;;;7.57;1.83;;;11.70;99.90;;;;;;5019121;28;20030;-70
2021/12/30 03:09:44;;;;;;;7.78;1.73;;;11.70;99.90;;;;;;5018875;28;20029;-69
2021/12/30 03:12:10;;;;;;;9.70;2.10;;;11.70;99.90;;;;;;5019522;28;20053;-68
2021/12/30 03:14:42;;;;;;;4.18;1.20;;;11.70;99.90;;;;;;5016844;28;20469;-69
2021/12/30 03:17:09;;;;;;;4.47;1.30;;;11.80;99.90;;;;;;5015521;28;20122;-68
2021/12/30 03:19:35;;;;;;;10.15;2.30;;;11.80;99.90;;;;;;5016379;28;20029;-68
2021/12/30 03:22:01;;;;;;;6.45;1.35;;;11.80;99.90;;;;;;5014908;28;20049;-68
2021/12/30 03:24:27;;;;;;;5.85;1.95;;;11.80;99.90;;;;;;5014411;28;20038;-67
2021/12/30 03:26:52;;;;;;;10.23;2.85;;;11.80;99.90;;;;;;5016245;28;20052;-68
2021/12/30 03:29:18;;;;;;;6.45;1.45;;;11.80;99.90;;;;;;5014493;28;20026;-71
2021/12/30 03:31:44;;;;;;;8.93;1.20;;;11.90;99.90;;;;;;5018266;28;20427;-73
2021/12/30 03:34:09;;;;;;;6.63;1.27;;;11.90;99.90;;;;;;5020109;28;20036;-70
2021/12/30 03:36:37;;;;;;;8.20;2.50;;;11.90;99.90;;;;;;5018422;28;20191;-68
2021/12/30 03:39:03;;;;;;;6.32;1.58;;;11.90;99.90;;;;;;5015640;28;20091;-68
2021/12/30 03:41:30;;;;;;;3.90;1.02;;;12.00;99.90;;;;;;5015120;28;20044;-69
2021/12/30 03:44:00;;;;;;;10.65;2.47;;;11.90;99.90;;;;;;5016186;28;20057;-67
2021/12/30 03:46:26;;;;;;;7.20;1.40;;;11.90;99.90;;;;;;5015180;28;20054;-66
2021/12/30 03:48:52;;;;;;;9.82;1.42;;;12.00;99.90;;;;;;5014710;28;20026;-67
2021/12/30 03:51:24;;;;;;;5.35;1.95;;;12.00;99.90;;;;;;5014824;28;20037;-68
2021/12/30 03:53:55;;;;;;;6.63;1.40;;;12.00;99.90;;;;;;5015485;28;20025;-69
2021/12/30 03:56:27;;;;;;;9.50;1.95;;;12.00;99.90;;;;;;5015243;28;20080;-67
2021/12/30 03:58:52;;;;;;;5.20;1.98;;;11.90;99.90;;;;;;5014850;28;20497;-67
2021/12/30 04:01:22;;;;;;;8.10;1.05;;;11.90;99.90;;;;;;5014861;28;20038;-69
2021/12/30 04:03:49;;;;;;;6.95;1.50;;;11.90;99.90;;;;;;5013836;28;20029;-68
2021/12/30 04:06:15;;;;;;;7.05;1.42;;;11.90;99.90;;;;;;5011960;28;20084;-67
2021/12/30 04:08:41;;;;;;;5.45;1.92;;;11.90;99.90;;;;;;5013079;28;20121;-67
2021/12/30 04:11:07;;;;;;;11.23;2.35;;;11.90;99.90;;;;;;5015794;28;20034;-67
2021/12/30 04:13:35;;;;;;;9.68;1.55;;;11.90;99.90;;;;;;5014072;28;20034;-70
2021/12/30 04:16:00;;;;;;;5.50;1.98;;;11.80;99.90;;;;;;5015967;28;20088;-67
2021/12/30 04:18:26;;;;;;;9.10;1.80;;;11.90;99.90;;;;;;5014577;28;20034;-67
2021/12/30 04:20:53;;;;;;;5.20;1.50;;;11.80;99.90;;;;;;5015263;28;20117;-67
2021/12/30 04:23:19;;;;;;;6.55;1.45;;;11.70;99.90;;;;;;5014672;28;20061;-69
2021/12/30 04:25:45;;;;;;;10.55;2.03;;;11.70;99.90;;;;;;5015072;28;20041;-68
2021/12/30 04:28:10;;;;;;;7.75;1.73;;;11.70;99.90;;;;;;5015144;28;20026;-68
2021/12/30 04:30:36;;;;;;;9.18;1.40;;;11.70;99.90;;;;;;5013488;28;20056;-70
2021/12/30 04:33:03;;;;;;;8.75;1.98;;;11.70;99.90;;;;;;5013566;28;20025;-67
2021/12/30 04:35:29;;;;;;;5.65;0.85;;;11.60;99.90;;;;;;5013337;28;20026;-68
2021/12/30 04:37:54;;;;;;;7.45;1.58;;;11.70;99.90;;;;;;5013652;28;20041;-68
2021/12/30 04:40:20;;;;;;;5.10;1.27;;;11.70;99.90;;;;;;5012778;28;20022;-68
2021/12/30 04:42:46;;;;;;;6.57;1.65;;;11.70;99.90;;;;;;5013589;28;20038;-67
2021/12/30 04:45:13;;;;;;;5.72;1.65;;;11.70;99.90;;;;;;5013481;28;20026;-67
2021/12/30 04:47:39;;;;;;;6.30;1.20;;;11.70;99.90;;;;;;4997025;28;20022;-67
2021/12/30 04:50:15;;;;;;;7.07;1.67;;;11.70;99.90;;;;;;5014657;28;20508;-67
2021/12/30 04:52:41;;;;;;;5.70;1.42;;;11.70;99.90;;;;;;5012972;28;20475;-66
2021/12/30 04:55:07;;;;;;;7.65;1.58;;;11.70;99.90;;;;;;5014316;28;20045;-68
2021/12/30 04:57:34;;;;;;;4.60;1.23;;;11.80;99.90;;;;;;5013683;28;20038;-68
2021/12/30 04:59:59;;;;;;;7.28;1.60;;;11.80;99.90;;;;;;5029461;28;20026;-67
2021/12/30 05:02:32;;;;;;;8.00;1.40;;;11.80;99.90;;;;;;5026580;28;20407;-66
2021/12/30 05:04:58;;;;;;;3.53;1.02;;;11.80;99.90;;;;;;5015455;28;20024;-68
2021/12/30 05:07:23;;;;;;;6.47;1.33;;;11.90;99.90;;;;;;5014632;28;20464;-67
2021/12/30 05:09:49;;;;;;;9.35;1.73;;;11.90;99.90;;;;;;5015929;28;20029;-67
2021/12/30 05:12:15;;;;;;;15.50;2.30;;;11.80;99.90;;;;;;5017334;28;20392;-69
2021/12/30 05:14:41;;;;;;;4.03;1.40;;;11.80;99.90;;;;;;5016508;28;20045;-67
2021/12/30 05:17:07;;;;;;;6.80;1.48;;;11.80;99.90;;;;;;5014821;28;20049;-67
2021/12/30 05:19:33;;;;;;;8.63;1.58;;;11.80;99.90;;;;;;5013068;28;20475;-71
2021/12/30 05:21:58;;;;;;;5.03;1.20;;;11.90;99.90;;;;;;5012102;28;20149;-66
2021/12/30 05:24:24;;;;;;;7.47;1.00;;;11.80;99.90;;;;;;5012986;28;20108;-68
2021/12/30 05:26:50;;;;;;;6.88;1.40;;;11.80;99.90;;;;;;5013569;28;20081;-67
2021/12/30 05:29:15;;;;;;;6.75;1.00;;;11.70;99.90;;;;;;5013217;28;20418;-65
2021/12/30 05:31:41;;;;;;;7.82;1.85;;;11.50;99.90;;;;;;5022696;28;20453;-67
2021/12/30 05:34:07;;;;;;;5.20;1.38;;;11.60;99.90;;;;;;5031698;28;20070;-68
2021/12/30 05:36:33;;;;;;;7.28;1.25;;;11.50;99.90;;;;;;5032369;28;20033;-68
2021/12/30 05:38:58;;;;;;;6.10;1.45;;;11.50;99.90;;;;;;5032920;28;20037;-67
2021/12/30 05:41:26;;;;;;;7.50;1.00;;;11.50;99.90;;;;;;5030897;28;20092;-67
2021/12/30 05:43:52;;;;;;;4.65;0.95;;;11.50;99.90;;;;;;5031572;28;20112;-67
2021/12/30 05:46:18;;;;;;;9.70;2.13;;;11.60;99.90;;;;;;5031694;28;20021;-66
2021/12/30 05:48:43;;;;;;;4.95;1.20;;;11.50;99.90;;;;;;5032733;28;20028;-68
2021/12/30 05:51:09;;;;;;;6.88;1.60;;;11.40;99.90;;;;;;5034760;28;20138;-68
2021/12/30 05:53:35;;;;;;;6.32;1.85;;;11.40;99.90;;;;;;5032449;28;20031;-67
2021/12/30 05:56:00;;;;;;;7.90;2.22;;;11.40;99.90;;;;;;5032359;28;20029;-67
2021/12/30 05:58:26;;;;;;;6.05;1.58;;;11.30;99.90;;;;;;5031960;28;20021;-66
2021/12/30 06:00:52;;;;;;;10.18;1.60;;;11.20;99.90;;;;;;5027647;28;20088;-66
2021/12/30 06:03:19;;;;;;;7.07;1.30;;;11.30;99.90;;;;;;5012789;28;20025;-67
2021/12/30 06:05:49;;;;;;;6.78;1.60;;;11.30;99.90;;;;;;5012377;28;20030;-66
2021/12/30 06:08:14;;;;;;;11.35;1.27;;;11.20;99.90;;;;;;5012769;28;20072;-67
2021/12/30 06:10:41;;;;;;;8.55;2.53;;;11.20;99.90;;;;;;5012030;28;20034;-67
2021/12/30 06:13:06;;;;;;;5.88;1.83;;;11.20;99.90;;;;;;5012722;28;20044;-71
2021/12/30 06:15:32;;;;;;;7.93;1.58;;;11.10;99.90;;;;;;5010927;28;20507;-68
2021/12/30 06:17:58;;;;;;;8.02;1.52;;;11.20;99.90;;;;;;5013660;28;20037;-68
2021/12/30 06:20:23;;;;;;;7.38;2.10;;;11.20;99.90;;;;;;5010540;28;20037;-67
2021/12/30 06:22:49;;;;;;;9.23;1.85;;;11.20;99.90;;;;;;5012051;28;20128;-67
2021/12/30 06:25:15;;;;;;;7.22;2.17;;;11.30;99.90;;;;;;5012040;28;20033;-67
2021/12/30 06:27:41;;;;;;;6.43;1.50;;;11.20;99.90;;;;;;5011357;28;20387;-67
2021/12/30 06:30:08;;;;;;;8.57;1.95;;;11.20;99.90;;;;;;5010030;28;20057;-67
2021/12/30 06:32:34;;;;;;;4.43;1.50;;;11.30;99.90;;;;;;5030184;28;20463;-67
2021/12/30 06:35:00;;;;;;;14.90;2.13;;;11.20;99.90;;;;;;5032030;28;20030;-67
2021/12/30 06:37:25;;;;;;;12.02;2.15;;;11.20;99.90;;;;;;5031538;28;20033;-68
2021/12/30 06:39:51;;;;;;;9.88;2.80;;;11.20;99.90;;;;;;5030745;28;20052;-67
2021/12/30 06:42:17;;;;;;;5.88;1.80;;;11.30;99.90;;;;;;5032936;28;20040;-68
2021/12/30 06:44:43;;;;;;;10.43;2.15;;;11.30;99.90;;;;;;5036427;28;20033;-68
2021/12/30 06:47:09;;;;;;;4.78;1.73;;;11.30;99.90;;;;;;5034777;28;20025;-67
2021/12/30 06:49:38;;;;;;;6.88;2.22;;;11.30;99.90;;;;;;5031514;28;20029;-69
2021/12/30 06:52:10;;;;;;;10.52;2.33;;;11.30;99.90;;;;;;5031521;28;20084;-66
2021/12/30 06:54:37;;;;;;;11.30;1.98;;;11.30;99.90;;;;;;5030707;28;20123;-66
2021/12/30 06:57:05;;;;;;;5.25;1.85;;;11.30;99.90;;;;;;5030464;28;20371;-66
2021/12/30 06:59:31;;;;;;;7.68;2.80;;;11.30;99.90;;;;;;5031285;28;20129;-68
2021/12/30 07:01:57;;;;;;;7.65;2.25;;;11.30;99.90;;;;;;5017797;28;20038;-68
2021/12/30 07:04:25;;;;;;;6.93;2.30;;;11.30;99.90;;;;;;5009747;28;20034;-67
2021/12/30 07:06:52;;;;;;;5.63;2.30;;;11.30;99.90;;;;;;5010222;28;20029;-67
2021/12/30 07:09:18;;;;;;;6.90;2.30;;;11.40;99.90;;;;;;5011552;28;20041;-66
2021/12/30 07:11:43;;;;;;;7.10;2.53;;;11.30;99.90;;;;;;5025944;28;20133;-66
2021/12/30 07:14:10;;;;;;;11.32;3.33;;;11.40;99.90;;;;;;5011646;28;20109;-67
2021/12/30 07:16:35;;;;;;;9.32;2.47;;;11.50;99.90;;;;;;5011297;28;20022;-67
2021/12/30 07:19:01;;;;;;;9.65;2.88;;;11.50;99.90;;;;;;5027231;28;20360;-68
2021/12/30 07:21:26;;;;;;;8.45;2.42;;;11.50;99.90;;;;;;5011806;28;20034;-67
2021/12/30 07:23:52;;;;;;;8.95;2.58;;;11.40;99.90;;;;;;5011424;28;20391;-67
2021/12/30 07:26:18;;;;;;;9.82;3.72;;;11.50;99.90;;;;;;5010794;28;20088;-67
2021/12/30 07:28:43;;;;;;;15.43;3.83;;;11.50;99.90;;;;;;5010094;28;20080;-67
2021/12/30 07:31:09;;;;;;;11.68;2.88;;;11.40;99.90;;;;;;5031897;28;20085;-67
2021/12/30 07:33:35;;;;;;;7.85;2.90;;;11.40;99.90;;;;;;5028978;28;20379;-68
2021/12/30 07:36:00;;;;;;;7.88;3.28;;;11.50;99.90;;;;;;5031338;28;20071;-66
2021/12/30 07:38:26;;;;;;;7.90;2.65;;;11.50;99.90;;;;;;5029540;28;20425;-67
2021/12/30 07:40:51;;;;;;;7.20;2.15;;;11.50;99.90;;;;;;5033006;28;20090;-66
2021/12/30 07:43:17;;;;;;;5.90;2.58;;;11.60;99.90;;;;;;5035132;28;20463;-67
2021/12/30 07:45:43;;;;;;;5.53;2.05;;;11.70;99.90;;;;;;5032745;28;20155;-69
2021/12/30 07:48:08;;;;;;;9.60;3.10;;;11.70;99.90;;;;;;5017229;28;20064;-67
2021/12/30 07:50:36;;;;;;;10.50;2.90;;;11.80;99.90;;;;;;5034403;28;20096;-67
2021/12/30 07:53:02;;;;;;;6.95;1.98;;;11.70;99.90;;;;;;5034740;28;20034;-69
2021/12/30 07:55:28;;;;;;;3.83;1.67;;;11.90;99.90;;;;;;5032878;28;20056;-67
2021/12/30 07:57:57;;;;;;;5.38;1.60;;;12.00;99.90;;;;;;5034635;28;20025;-69
2021/12/30 08:00:24;;;;;;;4.65;1.80;;;12.10;99.90;;;;;;5032345;28;20049;-67
2021/12/30 08:02:50;;;;;;;6.05;1.85;;;12.40;99.90;;;;;;5015108;28;20037;-67
2021/12/30 08:05:17;;;;;;;5.35;2.35;;;12.20;99.90;;;;;;5014953;28;20033;-68
2021/12/30 08:07:47;;;;;;;2.88;1.55;;;12.30;99.90;;;;;;5012575;28;20053;-69
2021/12/30 08:10:15;;;;;;;3.50;1.10;;;12.30;99.90;;;;;;5015237;28;20057;-68
2021/12/30 08:12:43;;;;;;;1.63;0.63;;;12.50;99.90;;;;;;5015252;28;20034;-69
2021/12/30 08:15:10;;;;;;;4.00;1.00;;;12.70;99.90;;;;;;5013787;28;20471;-67
2021/12/30 08:17:36;;;;;;;1.27;0.70;;;12.70;99.90;;;;;;5012300;28;20112;-67
2021/12/30 08:20:04;;;;;;;1.38;0.90;;;12.80;99.90;;;;;;5029546;28;20529;-67
2021/12/30 08:22:30;;;;;;;2.42;0.40;;;12.80;99.90;;;;;;5029249;28;20108;-67
2021/12/30 08:24:55;;;;;;;4.18;0.75;;;12.80;99.90;;;;;;5013932;28;20034;-69
2021/12/30 08:27:22;;;;;;;0.95;0.52;;;12.90;99.90;;;;;;5017467;28;20456;-68
2021/12/30 08:29:48;;;;;;;1.08;0.60;;;12.90;99.90;;;;;;5014372;28;20050;-71
2021/12/30 08:32:16;;;;;;;1.65;0.50;;;13.00;99.90;;;;;;5030197;28;20040;-65
2021/12/30 08:34:43;;;;;;;1.13;0.60;;;13.00;99.90;;;;;;5034221;28;20147;-67
2021/12/30 08:37:10;;;;;;;0.90;0.28;;;13.10;99.90;;;;;;5034335;28;20108;-68
2021/12/30 08:39:36;;;;;;;1.08;0.43;;;13.10;99.90;;;;;;5033600;28;20029;-68
2021/12/30 08:42:04;;;;;;;3.15;0.45;;;13.10;99.90;;;;;;5034130;28;20085;-68
2021/12/30 08:44:30;;;;;;;1.02;0.40;;;13.20;99.90;;;;;;5015765;28;20077;-69
2021/12/30 08:46:56;;;;;;;2.35;0.43;;;13.30;99.90;;;;;;5032759;28;20029;-67
2021/12/30 08:49:22;;;;;;;2.17;0.50;;;13.40;99.90;;;;;;5033143;28;20482;-69
2021/12/30 08:51:49;;;;;;;0.68;0.40;;;13.50;99.90;;;;;;5033243;28;20057;-67
2021/12/30 08:54:14;;;;;;;0.35;0.30;;;13.40;99.90;;;;;;5034515;28;20037;-67
2021/12/30 08:56:40;;;;;;;0.85;0.45;;;13.50;99.90;;;;;;5034218;28;20091;-67
2021/12/30 08:59:06;;;;;;;0.90;0.32;;;13.50;99.90;;;;;;5032429;28;20032;-67
2021/12/30 09:01:32;;;;;;;0.45;0.10;;;13.60;99.90;;;;;;5022702;28;20545;-69
2021/12/30 09:03:57;;;;;;;1.88;0.82;;;13.60;99.90;;;;;;5012612;28;20037;-69
2021/12/30 09:06:23;;;;;;;2.22;0.30;;;13.60;99.90;;;;;;5013245;28;20061;-68
2021/12/30 09:08:49;;;;;;;0.88;0.30;;;13.60;99.90;;;;;;5013754;28;20515;-68
2021/12/30 09:11:14;;;;;;;0.40;0.20;;;13.70;99.90;;;;;;5012667;28;20387;-73
2021/12/30 09:13:40;;;;;;;1.30;0.75;;;13.70;99.90;;;;;;5012941;28;20033;-69
2021/12/30 09:16:07;;;;;;;2.33;0.20;;;13.80;99.90;;;;;;4996013;28;20034;-68
2021/12/30 09:18:33;;;;;;;2.05;0.10;;;13.80;99.90;;;;;;5012948;28;20094;-67
2021/12/30 09:20:59;;;;;;;1.05;0.28;;;13.80;99.90;;;;;;5012883;28;20114;-68
2021/12/30 09:23:24;;;;;;;0.60;0.20;;;13.80;99.90;;;;;;5027630;28;20026;-68
2021/12/30 09:25:50;;;;;;;0.73;0.20;;;13.90;99.90;;;;;;5013063;28;20361;-67
2021/12/30 09:28:16;;;;;;;0.20;0.20;;;13.90;99.90;;;;;;5012083;28;20034;-68
2021/12/30 09:30:45;;;;;;;1.40;0.20;;;13.90;99.90;;;;;;5015859;28;20116;-66
2021/12/30 09:33:15;;;;;;;0.17;0.10;;;13.90;99.90;;;;;;5031786;28;20475;-69
2021/12/30 09:35:42;;;;;;;3.40;0.30;;;13.90;99.90;;;;;;5031176;28;20082;-69
2021/12/30 09:38:08;;;;;;;1.77;0.10;;;14.00;99.90;;;;;;5048148;28;20091;-67
2021/12/30 09:40:33;;;;;;;0.75;0.20;;;14.00;99.90;;;;;;5031034;28;20037;-67
2021/12/30 09:43:04;;;;;;;1.55;0.20;;;14.10;99.90;;;;;;5031550;28;20036;-68
2021/12/30 09:45:33;;;;;;;0.80;0.30;;;14.10;99.90;;;;;;5032238;28;20108;-66
2021/12/30 09:48:00;;;;;;;2.67;1.30;;;14.20;99.90;;;;;;5032671;28;20052;-68
2021/12/30 09:50:39;;;;;;;0.55;0.10;;;14.30;99.90;;;;;;5030817;28;20029;-68
2021/12/30 09:53:05;;;;;;;0.63;0.10;;;14.30;99.90;;;;;;5032384;28;20025;-67
2021/12/30 09:55:32;;;;;;;0.57;0.20;;;14.40;99.90;;;;;;5032551;28;20109;-67
2021/12/30 09:57:59;;;;;;;0.63;0.15;;;14.50;99.90;;;;;;5032779;28;20052;-67
2021/12/30 10:00:25;;;;;;;0.40;0.10;;;14.60;99.90;;;;;;5023686;28;20463;-67
2021/12/30 10:02:51;;;;;;;0.35;0.00;;;14.60;99.90;;;;;;4996171;28;20042;-69
2021/12/30 10:05:20;;;;;;;1.08;0.10;;;14.70;99.90;;;;;;4992237;28;20460;-65
2021/12/30 10:07:47;;;;;;;2.95;0.25;;;14.60;99.90;;;;;;4991157;28;20045;-67
2021/12/30 10:10:33;;;;;;;0.40;0.10;;;15.30;99.90;;;;;;5007595;28;20057;-67
2021/12/30 10:13:01;;;;;;;0.10;0.00;;;15.10;99.90;;;;;;4992799;28;20604;-67
2021/12/30 10:15:39;;;;;;;1.77;0.20;;;15.10;99.90;;;;;;5007234;28;20117;-70
2021/12/30 10:18:05;;;;;;;0.82;0.35;;;14.90;99.90;;;;;;4992911;28;20030;-67
2021/12/30 10:20:31;;;;;;;0.82;0.10;;;14.80;99.90;;;;;;4991046;28;20121;-67
2021/12/30 10:23:13;;;;;;;1.15;0.25;;;14.80;99.90;;;;;;5007510;28;20046;-68
2021/12/30 10:25:47;;;;;;;0.30;0.10;;;14.90;99.90;;;;;;4992025;28;20026;-67
2021/12/30 10:28:16;;;;;;;1.10;0.30;;;14.80;99.90;;;;;;4991071;28;20049;-68
2021/12/30 10:30:42;;;;;;;0.28;0.20;;;14.70;99.90;;;;;;5011578;28;20057;-68
2021/12/30 10:33:26;;;;;;;1.33;0.40;;;14.80;99.90;;;;;;5028860;28;20076;-67
2021/12/30 10:35:53;;;;;;;1.85;0.80;;;14.80;99.90;;;;;;5029177;28;20502;-67
2021/12/30 10:38:20;;;;;;;5.70;0.65;;;14.70;99.90;;;;;;5031907;28;20475;-68
2021/12/30 10:40:50;;;;;;;1.15;0.77;;;14.70;99.90;;;;;;5031413;28;20072;-70
2021/12/30 10:43:45;;;;;;;3.45;0.63;;;14.70;99.90;;;;;;5032362;28;20064;-68
2021/12/30 10:46:19;;;;;;;1.70;0.60;;;14.70;99.90;;;;;;5030280;28;20383;-68
2021/12/30 10:49:05;;;;;;;0.45;0.15;;;14.70;99.90;;;;;;5029934;28;20052;-69
2021/12/30 10:51:36;;;;;;;0.38;0.15;;;14.70;99.90;;;;;;5030635;28;20033;-68
2021/12/30 10:54:15;;;;;;;0.77;0.20;;;14.70;99.90;;;;;;5036716;28;20451;-67
2021/12/30 10:57:08;;;;;;;1.13;0.32;;;14.90;99.90;;;;;;5033476;28;20076;-67
2021/12/30 10:59:37;;;;;;;1.65;0.10;;;14.90;99.90;;;;;;5028775;28;20073;-69
2021/12/30 11:02:09;;;;;;;0.22;0.10;;;15.10;99.90;;;;;;5014815;28;20064;-67
2021/12/30 11:04:53;;;;;;;2.17;0.20;;;15.20;99.90;;;;;;5011071;28;20042;-68
2021/12/30 11:07:40;;;;;;;0.60;0.10;;;15.30;99.90;;;;;;5011416;28;20037;-68
2021/12/30 11:10:06;;;;;;;2.22;0.15;;;15.30;99.90;;;;;;5011868;28;20069;-67
2021/12/30 11:12:38;;;;;;;0.70;0.30;;;15.40;99.90;;;;;;5024481;28;20451;-68
2021/12/30 11:15:27;;;;;;;0.10;0.10;;;15.40;99.90;;;;;;5011004;28;20350;-68
2021/12/30 11:18:10;;;;;;;2.35;0.30;;;15.40;99.90;;;;;;4996315;28;20030;-67
2021/12/30 11:20:45;;;;;;;0.47;0.10;;;15.50;99.90;;;;;;5012811;28;20030;-68
2021/12/30 11:23:12;;;;;;;1.10;0.47;;;15.50;99.90;;;;;;5011003;28;20042;-69
2021/12/30 11:25:41;;;;;;;1.23;0.35;;;15.60;99.90;;;;;;5009888;28;20466;-67
2021/12/30 11:28:07;;;;;;;0.43;0.10;;;15.70;99.90;;;;;;5012016;28;20387;-70
2021/12/30 11:30:33;;;;;;;0.28;0.10;;;15.80;99.90;;;;;;5009168;28;20478;-68
2021/12/30 11:32:59;;;;;;;0.82;0.20;;;15.80;99.90;;;;;;5013712;28;20030;-68
2021/12/30 11:35:27;;;;;;;1.05;0.10;;;15.90;99.90;;;;;;5010625;28;20056;-69
2021/12/30 11:37:53;;;;;;;0.68;0.20;;;15.90;99.90;;;;;;5010917;28;20022;-68
2021/12/30 11:40:23;;;;;;;0.40;0.20;;;15.90;99.90;;;;;;5010865;28;20030;-68
2021/12/30 11:42:56;;;;;;;0.73;0.20;;;15.90;99.90;;;;;;5010620;28;20038;-67
2021/12/30 11:45:21;;;;;;;0.30;0.10;;;15.90;99.90;;;;;;5009667;28;20052;-68
2021/12/30 11:47:47;;;;;;;0.22;0.20;;;16.00;99.90;;;;;;5010075;28;20149;-68
2021/12/30 11:50:15;;;;;;;1.17;0.45;;;16.10;99.90;;;;;;5011110;28;20110;-68
2021/12/30 11:52:45;;;;;;;0.25;0.10;;;16.20;99.90;;;;;;5024372;28;20038;-68
2021/12/30 11:55:39;;;;;;;0.63;0.10;;;16.30;99.90;;;;;;5008548;28;20030;-68
2021/12/30 11:58:43;;;;;;;1.33;0.10;;;16.30;99.90;;;;;;5009661;28;20040;-67
2021/12/30 12:01:11;;;;;;;0.90;0.22;;;16.30;99.90;;;;;;5011550;28;20052;-67
2021/12/30 12:03:46;;;;;;;1.10;0.40;;;16.10;99.90;;;;;;5005652;28;20022;-67
2021/12/30 12:06:27;;;;;;;0.20;0.15;;;16.20;99.90;;;;;;5013331;28;20033;-67
2021/12/30 12:08:57;;;;;;;0.75;0.20;;;16.40;99.90;;;;;;5012953;28;20022;-68
2021/12/30 12:11:25;;;;;;;0.40;0.10;;;16.50;99.90;;;;;;5011355;28;20026;-69
2021/12/30 12:13:55;;;;;;;0.85;0.10;;;16.90;99.90;;;;;;5012698;28;20423;-68
2021/12/30 12:16:56;;;;;;;0.40;0.10;;;17.50;99.90;;;;;;5009027;28;20363;-68
2021/12/30 12:19:37;;;;;;;0.70;0.10;;;18.30;99.90;;;;;;4992513;28;20045;-67
2021/12/30 12:22:25;;;;;;;0.83;0.27;;;18.60;99.90;;;;;;5025458;28;20529;-68
2021/12/30 12:25:07;;;;;;;0.30;0.20;;;18.90;99.90;;;;;;5007931;28;20281;-68
2021/12/30 12:27:35;;;;;;;1.30;0.10;;;19.00;99.90;;;;;;4999015;28;20184;-67
2021/12/30 12:30:03;;;;;;;1.00;0.20;;;19.10;99.90;;;;;;5002781;28;20050;-68
2021/12/30 12:32:35;;;;;;;0.22;0.15;;;18.80;99.90;;;;;;5014495;28;20041;-67
2021/12/30 12:35:22;;;;;;;0.32;0.20;;;18.30;99.90;;;;;;5004504;28;20034;-68
2021/12/30 12:37:51;;;;;;;0.32;0.13;;;17.80;99.90;;;;;;4997589;28;20033;-68
2021/12/30 12:40:16;;;;;;;0.88;0.22;;;17.60;99.90;;;;;;4999610;28;20026;-68
2021/12/30 12:42:51;;;;;;;1.70;0.20;;;17.10;99.90;;;;;;5009904;28;20371;-69
2021/12/30 12:45:32;;;;;;;0.88;0.30;;;17.00;99.90;;;;;;5008969;28;20036;-68
2021/12/30 12:48:21;;;;;;;0.85;0.20;;;16.80;99.90;;;;;;5007410;28;20469;-68
2021/12/30 12:51:04;;;;;;;0.50;0.30;;;16.70;99.90;;;;;;5009936;28;20137;-70